首页
METAR-TAF:

METAR-TAF

机场 :

貝爾格勒尼古拉·特斯拉機場

贝尔格莱德, 塞尔维亚

纬度: 44-49N, 经度: 020-17E, 海拔: 96米

当前天气观测

该预报发布于11分钟前的03:00 UTC
风速1节,风向
温度 6°C
湿度 87%
气压 1029 hPa
能見度: 2500
轻雾

METAR: LYBE 260300Z 36001KT 2500 BR NSC 06/04 Q1029 BECMG 1500

时间: 04:11 (03:11 UTC)

预报

该预报发布于4小时和11分钟前的23:00 UTC
预报有效从26日的 00点(UTC)到 26日的 24点(UTC)
风速4节,风向
能見度: 5000
轻雾
成为
从 26日的 00点(UTC)到 26日的 02点(UTC)
能見度: 1500
短暂存在
从 26日的 03点(UTC)到 26日的 07点(UTC)
能見度: 0500
成为
从 26日的 09点(UTC)到 26日的 11点(UTC)
能見度: 6000
成为
从 26日的 22点(UTC)到 26日的 24点(UTC)
能見度: 4000
轻雾

TAF: LYBE 252300Z 2600/2624 10004KT 5000 BR NSC TX19/2613Z TN03/2605Z BECMG 2600/2602 1500 TEMPO 2603/2607 0500 FG BECMG 2609/2611 6000 NSW BECMG 2622/2624 4000 BR

超过4000个机场的气象观测和天气预报(METAR&TAF报告)。

可查询的气象台以黄色和红色小点在地图上表示。

将鼠标移到小点上方,可查看气象台名称。

然后点击查看天气观测和预报。

如需切换地图:点击带黑十字的绿色按钮放大地图;点击带横线的绿色按钮缩小地图;或者点击绿色箭头查看邻近地区的地图。


METAR-TAF: